Metar GG30 METAR message from awiacja.imgw.pl Metar G30 EPKK METAR EPKK 240430Z 03005KT 300V050 0100 R25/0500N FG VV001 09/09 Q1016 =